Time;durP1;ratioP1;P1;durP2;ratioP2;P2;SDS_P1;SDS_P2;PMS_P1;PMS_P2;Temp;Humidity;BMP_temperature;BMP_pressure;BME280_temperature;BME280_humidity;BME280_pressure;Samples;Min_cycle;Max_cycle;Signal;HPM_P1;HPM_P2
2021/12/07 00:01:48;;;;;;;4.10;2.87;;;4.80;99.90;;;;;;4938949;29;20558;-77
2021/12/07 00:04:14;;;;;;;3.70;3.20;;;4.70;99.90;;;;;;4942051;29;20177;-75
2021/12/07 00:06:40;;;;;;;3.90;2.90;;;4.70;99.90;;;;;;4934360;29;20205;-77
2021/12/07 00:09:09;;;;;;;4.77;3.07;;;4.60;99.90;;;;;;4930620;29;20213;-77
2021/12/07 00:11:35;;;;;;;5.00;3.33;;;4.60;99.90;;;;;;4926144;29;20189;-77
2021/12/07 00:14:11;;;;;;;4.83;3.20;;;4.60;99.90;;;;;;4913789;29;20190;-77
2021/12/07 00:16:36;;;;;;;4.77;3.43;;;4.50;99.90;;;;;;4936780;29;20172;-77
2021/12/07 00:19:04;;;;;;;6.10;3.40;;;4.50;99.90;;;;;;4899208;29;20229;-77
2021/12/07 00:21:30;;;;;;;3.73;3.17;;;4.40;99.90;;;;;;4909246;29;21628;-77
2021/12/07 00:23:56;;;;;;;4.60;3.70;;;4.40;99.90;;;;;;4919020;29;20200;-77
2021/12/07 00:26:22;;;;;;;4.70;3.53;;;4.40;99.90;;;;;;4931058;29;20681;-77
2021/12/07 00:28:50;;;;;;;4.40;3.47;;;4.30;99.90;;;;;;4899256;29;20587;-77
2021/12/07 00:31:31;;;;;;;6.27;3.90;;;4.30;99.90;;;;;;4913454;29;20277;-77
2021/12/07 00:36:41;;;;;;;6.53;3.90;;;4.20;99.90;;;;;;4936850;29;20189;-77
2021/12/07 00:39:08;;;;;;;5.37;4.23;;;4.20;99.90;;;;;;4943536;29;20210;-78
2021/12/07 00:41:34;;;;;;;5.57;4.47;;;4.10;99.90;;;;;;4933463;29;20550;-77
2021/12/07 00:44:02;;;;;;;6.40;4.80;;;4.20;99.90;;;;;;4929303;29;20182;-78
2021/12/07 00:46:29;;;;;;;6.80;4.90;;;4.10;99.90;;;;;;4918846;29;20240;-77
2021/12/07 00:48:55;;;;;;;8.27;5.43;;;4.10;99.90;;;;;;4940554;28;20264;-77
2021/12/07 00:51:22;;;;;;;7.30;5.20;;;4.10;99.90;;;;;;4913266;29;20171;-77
2021/12/07 00:53:48;;;;;;;7.03;4.97;;;4.00;99.90;;;;;;4922016;29;20197;-77
2021/12/07 00:56:14;;;;;;;5.93;4.83;;;4.00;99.90;;;;;;4940598;29;20300;-77
2021/12/07 00:58:39;;;;;;;7.77;5.63;;;4.00;99.90;;;;;;4918324;29;20218;-78
2021/12/07 01:01:14;;;;;;;6.90;5.00;;;4.00;99.90;;;;;;4904557;29;20183;-77
2021/12/07 01:03:41;;;;;;;6.87;5.30;;;3.90;99.90;;;;;;4932156;29;20173;-77
2021/12/07 01:06:43;;;;;;;8.80;5.07;;;4.00;99.90;;;;;;4915338;29;20225;-78
2021/12/07 01:25:36;;;;;;;6.53;5.30;;;3.80;99.90;;;;;;4937805;29;20201;-77
2021/12/07 01:28:10;;;;;;;7.10;5.00;;;3.80;99.90;;;;;;4923843;29;20209;-77
2021/12/07 01:30:43;;;;;;;6.27;5.43;;;3.80;99.90;;;;;;4917388;29;20204;-77
2021/12/07 01:41:11;;;;;;;5.87;4.93;;;3.80;99.90;;;;;;4931010;29;20189;-77
2021/12/07 01:46:51;;;;;;;8.83;5.60;;;3.80;99.90;;;;;;4930952;29;20216;-77
2021/12/07 02:00:09;;;;;;;7.10;5.60;;;3.90;99.90;;;;;;4917083;29;20186;-77
2021/12/07 02:02:39;;;;;;;7.43;5.90;;;3.90;99.90;;;;;;4918826;29;20186;-77
2021/12/07 02:05:06;;;;;;;6.70;5.40;;;4.00;99.90;;;;;;4902879;29;20193;-77
2021/12/07 02:07:32;;;;;;;6.77;5.40;;;4.00;99.90;;;;;;4937349;29;20205;-77
2021/12/07 02:10:05;;;;;;;6.87;5.60;;;4.00;99.90;;;;;;4925654;29;20217;-77
2021/12/07 02:12:41;;;;;;;6.03;5.07;;;4.00;99.90;;;;;;4886585;29;20561;-77
2021/12/07 02:15:10;;;;;;;6.37;4.97;;;4.00;99.90;;;;;;4894482;29;20634;-77
2021/12/07 02:17:36;;;;;;;6.67;5.50;;;4.10;99.90;;;;;;4920272;29;20202;-78
2021/12/07 02:20:04;;;;;;;6.87;5.80;;;4.10;99.90;;;;;;4920578;29;20566;-77
2021/12/07 02:22:30;;;;;;;6.30;5.63;;;4.10;99.90;;;;;;4923512;29;20190;-76
2021/12/07 02:24:57;;;;;;;7.50;6.23;;;4.10;99.90;;;;;;4940774;29;20182;-77
2021/12/07 02:27:23;;;;;;;6.83;5.90;;;4.20;99.90;;;;;;4923893;29;20661;-77
2021/12/07 02:29:49;;;;;;;7.40;5.70;;;4.20;99.90;;;;;;4937802;29;20740;-77
2021/12/07 02:32:15;;;;;;;7.40;5.63;;;4.20;99.90;;;;;;4930690;29;20185;-77
2021/12/07 02:34:52;;;;;;;6.93;5.53;;;4.20;99.90;;;;;;4923455;29;20181;-77
2021/12/07 02:37:25;;;;;;;7.33;5.80;;;4.30;99.90;;;;;;4920668;29;20201;-77
2021/12/07 02:39:52;;;;;;;6.27;5.43;;;4.20;99.90;;;;;;4929331;29;20213;-77
2021/12/07 02:42:19;;;;;;;8.10;5.77;;;4.20;99.90;;;;;;4929532;29;20223;-77
2021/12/07 02:44:46;;;;;;;5.77;5.00;;;4.20;99.90;;;;;;4899949;29;20189;-77
2021/12/07 02:47:13;;;;;;;7.37;5.80;;;4.20;99.90;;;;;;4962025;28;20196;-77
2021/12/07 02:49:39;;;;;;;7.93;5.77;;;4.20;99.90;;;;;;4928154;29;20217;-77
2021/12/07 02:52:06;;;;;;;7.03;5.80;;;4.20;99.90;;;;;;4906456;29;20186;-77
2021/12/07 02:54:36;;;;;;;6.37;5.43;;;4.20;99.90;;;;;;4933756;29;20174;-77
2021/12/07 02:57:06;;;;;;;9.43;5.23;;;4.20;99.90;;;;;;4931659;28;20177;-77
2021/12/07 02:59:33;;;;;;;7.03;5.40;;;4.20;99.90;;;;;;4932391;29;20197;-77
2021/12/07 03:02:05;;;;;;;7.00;5.73;;;4.20;99.90;;;;;;4905851;29;20196;-77
2021/12/07 03:04:36;;;;;;;7.03;5.47;;;4.20;99.90;;;;;;4931166;29;20747;-77
2021/12/07 03:28:42;;;;;;;6.37;4.50;;;4.20;99.90;;;;;;4915181;29;20223;-77
2021/12/07 03:31:10;;;;;;;5.80;4.50;;;4.10;99.90;;;;;;4920450;29;20190;-77
2021/12/07 03:33:38;;;;;;;5.40;4.20;;;4.10;99.90;;;;;;4940927;29;20217;-77
2021/12/07 03:36:07;;;;;;;4.73;4.03;;;4.10;99.90;;;;;;4914253;29;20185;-76
2021/12/07 03:38:32;;;;;;;7.70;4.53;;;4.10;99.90;;;;;;4946973;29;20213;-77
2021/12/07 03:41:00;;;;;;;4.90;4.07;;;4.10;99.90;;;;;;4900127;29;20272;-77
2021/12/07 03:43:26;;;;;;;4.17;3.60;;;4.10;99.90;;;;;;4898268;29;20201;-78
2021/12/07 03:45:53;;;;;;;5.13;4.00;;;4.10;99.90;;;;;;4962401;28;20716;-78
2021/12/07 03:48:21;;;;;;;5.30;4.33;;;4.10;99.90;;;;;;4953406;28;20247;-77
2021/12/07 03:50:47;;;;;;;4.87;3.87;;;4.10;99.90;;;;;;4933682;29;20217;-77
2021/12/07 03:53:14;;;;;;;6.00;4.20;;;4.00;99.90;;;;;;4926756;29;20186;-78
2021/12/07 03:55:41;;;;;;;7.13;4.93;;;4.00;99.90;;;;;;4937754;29;20177;-77
2021/12/07 03:58:07;;;;;;;4.57;3.67;;;4.00;99.90;;;;;;4903329;29;20334;-78
2021/12/07 04:00:36;;;;;;;5.33;3.77;;;3.90;99.90;;;;;;4923477;29;20197;-78
2021/12/07 04:03:08;;;;;;;4.80;4.00;;;3.90;99.90;;;;;;4920255;29;20693;-78
2021/12/07 04:05:36;;;;;;;4.37;3.50;;;3.90;99.90;;;;;;4910759;29;20264;-78
2021/12/07 04:08:04;;;;;;;5.00;3.90;;;4.00;99.90;;;;;;4919370;29;20224;-75
2021/12/07 04:10:30;;;;;;;3.87;3.47;;;3.90;99.90;;;;;;4943072;29;20217;-75
2021/12/07 04:12:56;;;;;;;6.40;3.80;;;4.00;99.90;;;;;;4927914;29;20297;-76
2021/12/07 04:15:22;;;;;;;4.63;3.57;;;4.00;99.90;;;;;;4929936;29;20237;-76
2021/12/07 04:17:48;;;;;;;5.47;3.77;;;4.00;99.90;;;;;;4959643;28;20194;-76
2021/12/07 04:20:18;;;;;;;3.87;3.30;;;4.00;99.90;;;;;;4924000;29;20190;-76
2021/12/07 04:22:44;;;;;;;3.50;2.97;;;3.90;99.90;;;;;;4911451;29;20200;-76
2021/12/07 04:25:13;;;;;;;3.70;3.30;;;3.90;99.90;;;;;;4921178;29;20202;-76
2021/12/07 04:27:39;;;;;;;3.50;3.20;;;3.90;99.90;;;;;;4949285;28;20243;-76
2021/12/07 04:30:10;;;;;;;4.20;3.30;;;3.90;99.90;;;;;;4928229;29;20772;-76
2021/12/07 04:32:36;;;;;;;8.87;3.50;;;4.00;99.90;;;;;;4938793;29;20182;-76
2021/12/07 04:35:03;;;;;;;4.73;3.53;;;4.00;99.90;;;;;;4940029;29;20529;-76
2021/12/07 04:37:29;;;;;;;4.07;3.30;;;4.00;99.90;;;;;;4928400;29;20649;-76
2021/12/07 04:39:55;;;;;;;3.57;3.23;;;4.00;99.90;;;;;;4923045;29;20193;-76
2021/12/07 04:42:21;;;;;;;4.50;3.30;;;4.00;99.90;;;;;;4918477;29;20588;-76
2021/12/07 04:44:53;;;;;;;3.97;3.43;;;4.10;99.90;;;;;;4925373;29;20178;-76
2021/12/07 04:47:33;;;;;;;3.30;3.00;;;4.10;99.90;;;;;;4939189;28;20217;-76
2021/12/07 04:58:09;;;;;;;5.13;3.17;;;4.10;99.90;;;;;;4938671;29;20206;-76
2021/12/07 05:00:35;;;;;;;4.57;3.20;;;4.10;99.90;;;;;;4936469;29;20182;-76
2021/12/07 05:03:05;;;;;;;3.50;3.00;;;4.10;99.90;;;;;;4923362;29;20178;-76
2021/12/07 05:05:36;;;;;;;3.83;3.37;;;4.10;99.90;;;;;;4921623;29;20276;-76
2021/12/07 05:08:06;;;;;;;3.77;3.10;;;4.10;99.90;;;;;;4924055;29;20211;-77
2021/12/07 05:40:07;;;;;;;3.97;3.20;;;4.40;99.90;;;;;;4901528;29;20191;-77
2021/12/07 05:42:39;;;;;;;4.13;2.60;;;4.50;99.90;;;;;;4949597;29;20654;-77
2021/12/07 05:45:08;;;;;;;3.00;2.70;;;4.50;99.90;;;;;;4943500;29;20294;-77
2021/12/07 05:47:33;;;;;;;4.77;2.90;;;4.50;99.90;;;;;;4947590;28;20264;-77
2021/12/07 05:50:00;;;;;;;3.43;2.70;;;4.50;99.90;;;;;;4937172;29;20248;-77
2021/12/07 05:52:26;;;;;;;3.57;2.70;;;4.50;99.90;;;;;;4937367;29;20189;-77
2021/12/07 05:54:51;;;;;;;4.50;2.70;;;4.50;99.90;;;;;;4910806;29;20177;-77
2021/12/07 05:57:17;;;;;;;4.10;2.70;;;4.60;99.90;;;;;;4941797;29;20577;-77
2021/12/07 05:59:43;;;;;;;4.77;2.73;;;4.50;99.90;;;;;;4921897;29;20193;-77
2021/12/07 06:02:09;;;;;;;4.07;2.70;;;4.60;99.90;;;;;;4943023;29;20300;-77
2021/12/07 06:04:35;;;;;;;4.67;2.70;;;4.60;99.90;;;;;;4939494;29;20685;-77
2021/12/07 06:07:00;;;;;;;4.80;2.90;;;4.60;99.90;;;;;;4941342;29;20221;-77
2021/12/07 06:09:27;;;;;;;3.97;2.60;;;4.60;99.90;;;;;;4946787;29;20237;-77
2021/12/07 06:11:54;;;;;;;4.00;2.33;;;4.60;99.90;;;;;;4938775;29;20251;-77
2021/12/07 06:14:29;;;;;;;4.23;2.63;;;4.60;99.90;;;;;;4939271;29;20181;-79
2021/12/07 06:16:55;;;;;;;6.73;2.50;;;4.60;99.90;;;;;;4943415;29;20212;-78
2021/12/07 06:19:21;;;;;;;4.80;2.10;;;4.60;99.90;;;;;;4951257;29;20224;-77
2021/12/07 06:21:46;;;;;;;4.53;2.40;;;4.60;99.90;;;;;;4937868;29;20701;-77
2021/12/07 06:24:12;;;;;;;3.23;2.27;;;4.60;99.90;;;;;;4938297;29;20186;-77
2021/12/07 06:26:38;;;;;;;4.30;2.27;;;4.60;99.90;;;;;;4938849;29;20613;-76
2021/12/07 06:29:04;;;;;;;3.17;2.10;;;4.60;99.90;;;;;;4920090;29;20220;-76
2021/12/07 06:31:30;;;;;;;3.67;2.40;;;4.60;99.90;;;;;;4920588;29;20217;-78
2021/12/07 06:33:56;;;;;;;5.50;2.50;;;4.60;99.90;;;;;;4937068;29;20326;-77
2021/12/07 06:36:24;;;;;;;5.03;2.50;;;4.70;99.90;;;;;;4937439;29;20642;-77
2021/12/07 06:38:51;;;;;;;5.17;2.60;;;4.70;99.90;;;;;;4919118;29;20202;-76
2021/12/07 06:41:16;;;;;;;3.63;2.47;;;4.70;99.90;;;;;;4937052;29;20608;-75
2021/12/07 06:43:42;;;;;;;5.30;2.40;;;4.70;99.90;;;;;;4920071;29;20178;-75
2021/12/07 06:46:08;;;;;;;5.53;2.67;;;4.70;99.90;;;;;;4936944;29;20589;-74
2021/12/07 06:48:34;;;;;;;5.63;2.30;;;4.70;99.90;;;;;;4903354;29;20206;-76
2021/12/07 06:51:01;;;;;;;4.73;2.30;;;4.70;99.90;;;;;;4912985;29;20303;-76
2021/12/07 06:53:29;;;;;;;3.83;2.30;;;4.70;99.90;;;;;;4955000;29;20177;-76
2021/12/07 06:55:55;;;;;;;5.87;2.63;;;4.70;99.90;;;;;;4929054;29;20241;-76
2021/12/07 06:58:21;;;;;;;4.03;2.40;;;4.70;99.90;;;;;;4919960;29;20206;-76
2021/12/07 07:00:47;;;;;;;5.93;2.90;;;4.70;99.90;;;;;;4919437;29;20252;-76
2021/12/07 07:03:13;;;;;;;6.17;2.67;;;4.70;99.90;;;;;;4931248;29;20199;-76
2021/12/07 07:05:38;;;;;;;4.20;2.40;;;4.70;99.90;;;;;;4935638;29;20591;-77
2021/12/07 07:08:06;;;;;;;3.27;2.20;;;4.70;99.90;;;;;;4939541;29;20212;-75
2021/12/07 07:10:32;;;;;;;4.17;2.70;;;4.70;99.90;;;;;;4935429;29;20669;-78
2021/12/07 07:12:58;;;;;;;4.90;2.50;;;4.80;99.90;;;;;;4957007;28;20181;-83
2021/12/07 07:15:24;;;;;;;6.17;3.10;;;4.80;99.90;;;;;;4914607;29;20185;-77
2021/12/07 07:17:50;;;;;;;5.80;2.30;;;4.80;99.90;;;;;;4933707;29;20222;-79
2021/12/07 07:20:17;;;;;;;3.10;2.40;;;4.80;99.90;;;;;;4936005;29;20189;-80
2021/12/07 07:22:43;;;;;;;4.37;2.50;;;4.80;99.90;;;;;;4934076;29;20182;-78
2021/12/07 07:25:10;;;;;;;4.70;2.57;;;4.80;99.90;;;;;;4917434;29;20221;-78
2021/12/07 07:27:36;;;;;;;4.83;2.40;;;4.80;99.90;;;;;;4934105;29;20226;-78
2021/12/07 07:30:05;;;;;;;4.97;2.50;;;4.90;99.90;;;;;;4918754;29;20222;-79
2021/12/07 07:32:31;;;;;;;4.73;2.60;;;4.90;99.90;;;;;;4936834;29;20190;-79
2021/12/07 07:34:57;;;;;;;3.87;2.27;;;4.90;99.90;;;;;;4949393;29;20201;-78
2021/12/07 07:37:22;;;;;;;6.77;3.00;;;4.90;99.90;;;;;;4936731;29;20226;-79
2021/12/07 07:39:49;;;;;;;5.90;2.70;;;4.90;99.90;;;;;;4927212;29;20619;-77
2021/12/07 07:42:15;;;;;;;6.77;2.70;;;4.90;99.90;;;;;;4919934;29;20190;-77
2021/12/07 07:44:54;;;;;;;5.57;3.20;;;5.00;99.90;;;;;;4919819;29;20216;-78
2021/12/07 07:47:20;;;;;;;4.53;2.70;;;4.90;99.90;;;;;;4935637;29;20230;-77
2021/12/07 07:49:46;;;;;;;8.63;2.80;;;4.90;99.90;;;;;;4919687;29;20273;-78
2021/12/07 07:52:12;;;;;;;5.80;2.73;;;4.90;99.90;;;;;;4936324;29;20202;-79
2021/12/07 07:54:37;;;;;;;3.23;2.50;;;4.90;99.90;;;;;;4925412;29;20186;-78
2021/12/07 07:57:03;;;;;;;6.77;2.90;;;4.90;99.90;;;;;;4927448;28;20238;-78
2021/12/07 07:59:30;;;;;;;5.63;3.00;;;4.90;99.90;;;;;;4920770;29;20190;-79
2021/12/07 08:01:56;;;;;;;7.03;2.93;;;4.90;99.90;;;;;;4932486;29;20197;-78
2021/12/07 08:04:21;;;;;;;4.70;2.97;;;5.00;99.90;;;;;;4953256;29;20595;-78
2021/12/07 08:06:47;;;;;;;5.57;2.53;;;5.10;99.90;;;;;;4924403;29;20192;-78
2021/12/07 08:09:13;;;;;;;4.40;3.03;;;5.10;99.90;;;;;;4943112;28;20212;-78
2021/12/07 08:11:39;;;;;;;4.87;2.83;;;5.10;99.90;;;;;;4934601;29;20942;-78
2021/12/07 08:14:05;;;;;;;6.83;3.13;;;5.10;99.90;;;;;;4917124;29;20236;-77
2021/12/07 08:16:31;;;;;;;5.80;3.07;;;5.20;99.90;;;;;;4934404;29;20539;-77
2021/12/07 08:18:57;;;;;;;4.63;3.10;;;5.20;99.90;;;;;;4933273;29;20216;-78
2021/12/07 08:21:26;;;;;;;7.90;3.30;;;5.20;99.90;;;;;;4937693;29;20181;-77
2021/12/07 08:23:52;;;;;;;8.93;3.67;;;5.20;99.90;;;;;;4916442;29;20182;-78
2021/12/07 08:26:21;;;;;;;6.90;3.47;;;5.30;99.90;;;;;;4932607;29;20642;-78
2021/12/07 08:28:47;;;;;;;8.73;3.17;;;5.30;99.90;;;;;;4933628;29;20492;-77
2021/12/07 08:31:15;;;;;;;6.40;3.40;;;5.30;99.90;;;;;;4930954;29;20186;-77
2021/12/07 08:33:40;;;;;;;6.97;3.20;;;5.40;99.90;;;;;;4929668;29;20695;-78
2021/12/07 08:36:07;;;;;;;8.30;3.43;;;5.40;99.90;;;;;;4912088;29;20216;-78
2021/12/07 08:38:33;;;;;;;9.87;5.10;;;5.40;99.90;;;;;;4902240;29;20202;-77
2021/12/07 08:40:59;;;;;;;11.00;4.30;;;5.40;99.90;;;;;;4929730;29;20268;-77
2021/12/07 08:43:30;;;;;;;11.40;4.70;;;5.40;99.90;;;;;;4931949;29;20690;-78
2021/12/07 08:45:58;;;;;;;15.80;6.03;;;5.50;99.90;;;;;;4917258;29;20178;-77
2021/12/07 08:48:24;;;;;;;7.73;4.60;;;5.60;99.90;;;;;;4934091;29;20280;-77
2021/12/07 08:50:50;;;;;;;7.37;3.87;;;5.60;99.90;;;;;;4934695;29;20300;-78
2021/12/07 08:53:18;;;;;;;7.23;3.73;;;5.70;99.90;;;;;;4917457;29;20236;-79
2021/12/07 09:01:17;;;;;;;8.20;3.73;;;5.80;99.90;;;;;;4920864;29;20209;-79
2021/12/07 09:03:44;;;;;;;7.13;3.90;;;5.80;99.90;;;;;;4942445;29;20182;-78
2021/12/07 09:06:10;;;;;;;10.03;4.50;;;5.80;99.90;;;;;;4934086;29;20224;-78
2021/12/07 09:08:40;;;;;;;6.97;4.10;;;5.90;99.90;;;;;;4917173;29;20201;-78
2021/12/07 09:11:06;;;;;;;6.07;3.60;;;5.90;99.90;;;;;;4917475;29;20212;-78
2021/12/07 09:13:32;;;;;;;8.63;4.53;;;5.90;99.90;;;;;;4933068;29;20170;-78
2021/12/07 09:15:58;;;;;;;9.63;5.03;;;5.90;99.90;;;;;;4932296;29;20277;-79
2021/12/07 09:18:25;;;;;;;11.90;4.90;;;6.00;99.90;;;;;;4941384;28;20293;-78
2021/12/07 09:20:52;;;;;;;8.23;3.90;;;6.00;99.90;;;;;;4953839;29;20244;-78
2021/12/07 09:23:17;;;;;;;7.57;3.63;;;6.00;99.90;;;;;;4918376;29;20185;-78
2021/12/07 09:25:43;;;;;;;7.00;3.77;;;6.00;99.90;;;;;;4934086;29;20193;-78
2021/12/07 09:28:10;;;;;;;10.50;4.13;;;6.00;99.90;;;;;;4932866;29;20217;-78
2021/12/07 09:30:37;;;;;;;7.60;3.40;;;6.00;99.90;;;;;;4944640;29;20217;-78
2021/12/07 09:33:04;;;;;;;7.93;3.73;;;6.10;99.90;;;;;;4933387;29;20188;-79
2021/12/07 09:35:30;;;;;;;9.57;4.07;;;6.10;99.90;;;;;;4938696;29;20185;-78
2021/12/07 09:37:55;;;;;;;10.40;3.57;;;6.10;99.90;;;;;;4923649;29;20236;-78
2021/12/07 09:40:24;;;;;;;9.87;4.10;;;6.10;99.90;;;;;;4925321;29;20589;-80
2021/12/07 09:42:52;;;;;;;9.17;3.97;;;6.10;99.90;;;;;;4928460;29;20226;-81
2021/12/07 09:45:18;;;;;;;12.53;6.20;;;6.10;99.90;;;;;;4944269;29;20181;-79
2021/12/07 09:47:46;;;;;;;9.70;3.47;;;6.10;99.90;;;;;;4940105;28;20221;-78
2021/12/07 09:50:15;;;;;;;9.03;4.10;;;6.10;99.90;;;;;;4947711;29;20244;-78
2021/12/07 09:52:43;;;;;;;7.47;3.47;;;6.10;99.90;;;;;;4943430;29;20189;-78
2021/12/07 09:55:09;;;;;;;8.40;3.10;;;6.10;99.90;;;;;;4940588;29;20182;-78
2021/12/07 09:57:35;;;;;;;6.07;3.47;;;6.20;99.90;;;;;;4935091;29;20729;-76
2021/12/07 10:00:03;;;;;;;11.77;6.30;;;6.30;99.90;;;;;;4900736;29;20226;-76
2021/12/07 10:02:38;;;;;;;7.47;3.77;;;6.30;99.90;;;;;;4933622;29;20186;-76
2021/12/07 10:05:05;;;;;;;6.40;3.60;;;6.30;99.90;;;;;;4931870;29;20190;-76
2021/12/07 10:07:31;;;;;;;7.40;3.13;;;6.40;99.90;;;;;;4940590;28;20711;-76
2021/12/07 10:09:56;;;;;;;9.30;2.90;;;6.40;99.90;;;;;;4893933;29;20218;-78
2021/12/07 10:12:24;;;;;;;9.93;3.80;;;6.40;99.90;;;;;;4936319;29;20186;-78
2021/12/07 10:14:50;;;;;;;7.20;3.10;;;6.40;99.90;;;;;;4938093;29;20265;-79
2021/12/07 10:17:22;;;;;;;8.87;3.20;;;6.50;99.90;;;;;;4920412;29;20375;-79
2021/12/07 10:19:48;;;;;;;5.07;3.00;;;6.50;99.90;;;;;;4901680;29;20190;-77
2021/12/07 10:22:19;;;;;;;8.50;3.07;;;6.60;99.90;;;;;;4907088;29;20189;-77
2021/12/07 10:24:54;;;;;;;12.47;3.13;;;6.60;99.90;;;;;;4940291;29;20178;-76
2021/12/07 10:27:34;;;;;;;7.67;3.10;;;6.70;99.90;;;;;;4928327;29;20225;-78
2021/12/07 10:30:08;;;;;;;11.00;3.57;;;6.80;99.90;;;;;;4880760;29;20210;-78
2021/12/07 10:32:38;;;;;;;10.97;3.50;;;6.90;99.90;;;;;;4941368;29;20241;-77
2021/12/07 10:35:04;;;;;;;8.40;3.20;;;6.90;99.90;;;;;;4934420;29;20197;-77
2021/12/07 10:37:31;;;;;;;8.27;3.10;;;7.00;99.90;;;;;;4940781;28;20215;-77
2021/12/07 10:39:57;;;;;;;10.20;3.43;;;7.00;99.90;;;;;;4940018;29;20193;-77
2021/12/07 10:42:26;;;;;;;8.27;2.93;;;7.10;99.90;;;;;;4946567;29;20266;-77
2021/12/07 10:44:53;;;;;;;8.93;3.10;;;7.20;99.90;;;;;;4904477;29;20276;-77
2021/12/07 10:47:22;;;;;;;6.37;2.80;;;7.30;99.90;;;;;;4935514;29;20213;-77
2021/12/07 10:50:00;;;;;;;8.13;3.03;;;7.30;99.90;;;;;;4920359;29;20210;-77
2021/12/07 10:52:30;;;;;;;4.57;2.70;;;7.50;99.90;;;;;;4920343;29;20180;-77
2021/12/07 10:55:03;;;;;;;10.43;2.90;;;7.50;99.90;;;;;;4920492;29;20219;-77
2021/12/07 10:57:39;;;;;;;6.03;2.83;;;7.60;99.90;;;;;;4951797;28;20209;-78
2021/12/07 11:00:40;;;;;;;7.67;3.13;;;7.60;99.90;;;;;;4905494;29;20276;-78
2021/12/07 11:03:12;;;;;;;7.27;2.77;;;7.70;99.90;;;;;;4893203;29;20284;-77
2021/12/07 11:05:51;;;;;;;6.13;2.50;;;7.80;99.40;;;;;;4938343;29;20233;-77
2021/12/07 11:08:19;;;;;;;6.97;2.40;;;8.00;94.40;;;;;;4937082;29;20609;-78
2021/12/07 11:10:49;;;;;;;6.73;2.43;;;8.10;90.50;;;;;;4941915;29;20213;-78
2021/12/07 11:13:26;;;;;;;10.57;2.77;;;8.10;90.80;;;;;;4928595;29;20280;-77
2021/12/07 11:15:56;;;;;;;8.27;2.70;;;8.10;90.90;;;;;;4937047;29;20193;-75
2021/12/07 11:18:23;;;;;;;9.70;3.00;;;8.20;85.50;;;;;;4936111;29;20193;-75
2021/12/07 11:20:50;;;;;;;8.43;2.40;;;8.10;83.00;;;;;;4936037;29;20265;-75
2021/12/07 11:23:20;;;;;;;9.87;2.23;;;8.10;83.00;;;;;;4936391;29;20181;-76
2021/12/07 11:31:26;;;;;;;6.13;1.90;;;8.30;77.80;;;;;;4927425;29;20217;-77
2021/12/07 11:34:09;;;;;;;7.13;1.70;;;8.30;77.80;;;;;;4936472;29;20331;-77
2021/12/07 11:36:43;;;;;;;5.20;2.10;;;8.30;77.20;;;;;;4943625;29;20194;-77
2021/12/07 11:39:32;;;;;;;7.10;2.00;;;8.30;78.20;;;;;;4902052;29;20208;-77
2021/12/07 11:42:20;;;;;;;4.33;1.70;;;8.20;77.20;;;;;;4933938;29;20226;-79
2021/12/07 11:44:53;;;;;;;7.10;2.03;;;8.20;77.40;;;;;;4942564;29;20198;-77
2021/12/07 11:47:28;;;;;;;6.83;1.60;;;8.40;77.90;;;;;;4916450;29;20323;-77
2021/12/07 11:49:55;;;;;;;8.60;1.90;;;8.40;77.30;;;;;;4932494;29;20213;-78
2021/12/07 11:52:22;;;;;;;6.47;1.90;;;8.70;78.60;;;;;;4937150;29;20213;-79
2021/12/07 11:54:47;;;;;;;9.50;2.17;;;8.90;78.00;;;;;;4905466;29;20181;-78
2021/12/07 11:57:16;;;;;;;8.27;2.00;;;9.00;74.60;;;;;;4925373;28;20263;-81
2021/12/07 11:59:43;;;;;;;4.40;1.67;;;9.00;72.80;;;;;;4935826;29;20278;-79
2021/12/07 12:02:09;;;;;;;3.60;1.80;;;9.20;72.30;;;;;;4917250;29;20202;-80
2021/12/07 12:04:35;;;;;;;7.73;1.90;;;9.30;72.00;;;;;;4939588;29;20193;-78
2021/12/07 12:07:01;;;;;;;4.87;1.60;;;9.40;69.80;;;;;;4929005;29;20194;-77
2021/12/07 12:09:28;;;;;;;6.07;1.90;;;9.40;70.80;;;;;;4927477;29;20565;-78
2021/12/07 12:12:09;;;;;;;8.40;2.10;;;9.70;71.00;;;;;;4912131;29;20185;-78
2021/12/07 12:14:57;;;;;;;4.40;1.80;;;10.00;70.10;;;;;;4932567;29;20190;-77
2021/12/07 12:17:38;;;;;;;5.60;1.80;;;10.10;68.60;;;;;;4930699;29;20206;-77
2021/12/07 12:20:56;;;;;;;7.93;2.23;;;9.90;65.90;;;;;;4913630;29;20655;-78
2021/12/07 12:23:41;;;;;;;8.33;2.40;;;10.00;67.30;;;;;;4899231;29;20284;-77
2021/12/07 12:26:10;;;;;;;7.10;2.30;;;10.10;67.60;;;;;;4911145;29;20201;-78
2021/12/07 12:28:49;;;;;;;5.33;2.00;;;10.20;67.20;;;;;;4931248;29;20248;-79
2021/12/07 12:31:18;;;;;;;6.70;2.40;;;10.40;66.40;;;;;;4928958;29;20205;-82
2021/12/07 12:33:54;;;;;;;4.83;1.97;;;10.70;66.30;;;;;;4930561;29;20193;-86
2021/12/07 12:36:22;;;;;;;8.30;2.10;;;10.60;64.70;;;;;;4914262;29;20283;-84
2021/12/07 12:39:08;;;;;;;10.63;3.57;;;10.20;64.40;;;;;;4913682;29;20217;-77
2021/12/07 12:41:36;;;;;;;5.47;2.27;;;9.90;65.30;;;;;;4938503;29;20555;-77
2021/12/07 12:44:14;;;;;;;6.73;2.10;;;9.60;65.20;;;;;;4932109;29;20186;-76
2021/12/07 12:46:41;;;;;;;7.63;2.20;;;9.50;65.90;;;;;;4939254;29;20190;-77
2021/12/07 12:49:12;;;;;;;7.47;1.63;;;9.80;66.30;;;;;;4946058;28;20284;-76
2021/12/07 12:51:48;;;;;;;5.43;2.10;;;9.80;66.60;;;;;;4939730;29;20688;-77
2021/12/07 12:54:14;;;;;;;6.33;1.90;;;9.80;67.00;;;;;;4903966;29;20192;-77
2021/12/07 12:56:40;;;;;;;4.33;1.90;;;9.60;66.00;;;;;;4916996;29;20322;-78
2021/12/07 12:59:09;;;;;;;6.47;2.27;;;9.30;65.60;;;;;;4933699;29;20606;-80
2021/12/07 13:01:42;;;;;;;5.20;1.93;;;9.20;66.20;;;;;;4931431;29;20252;-79
2021/12/07 13:04:13;;;;;;;5.13;1.83;;;9.20;66.60;;;;;;4915183;29;20182;-77
2021/12/07 13:06:47;;;;;;;6.63;1.73;;;9.40;67.00;;;;;;4932810;29;20174;-77
2021/12/07 13:09:19;;;;;;;6.37;2.10;;;9.60;66.30;;;;;;4929055;29;20577;-77
2021/12/07 13:11:50;;;;;;;5.87;2.00;;;9.70;65.10;;;;;;4935390;29;20186;-77
2021/12/07 13:14:19;;;;;;;6.47;2.00;;;9.50;64.40;;;;;;4925316;29;20639;-77
2021/12/07 13:17:03;;;;;;;7.73;2.20;;;9.40;65.00;;;;;;4938618;29;20190;-77
2021/12/07 13:19:30;;;;;;;4.57;1.90;;;9.20;66.30;;;;;;4932379;29;20570;-78
2021/12/07 13:22:08;;;;;;;6.30;2.70;;;9.10;65.80;;;;;;4949344;29;20189;-78
2021/12/07 13:24:37;;;;;;;9.67;4.80;;;9.00;67.10;;;;;;4933967;29;20185;-78
2021/12/07 13:27:10;;;;;;;9.00;3.10;;;8.90;66.60;;;;;;4933928;29;20198;-77
2021/12/07 13:29:38;;;;;;;4.77;2.03;;;8.90;66.30;;;;;;4933793;29;20578;-78
2021/12/07 13:32:05;;;;;;;5.30;2.03;;;8.80;66.10;;;;;;4928563;29;20566;-78
2021/12/07 13:34:34;;;;;;;7.63;2.40;;;8.80;66.70;;;;;;4932805;29;20182;-77
2021/12/07 13:37:08;;;;;;;6.27;1.80;;;9.00;66.90;;;;;;4933482;29;20177;-77
2021/12/07 13:39:41;;;;;;;6.20;1.83;;;9.10;66.40;;;;;;4933503;29;20206;-78
2021/12/07 13:42:16;;;;;;;4.07;1.50;;;9.30;66.10;;;;;;4932634;29;20278;-77
2021/12/07 13:44:46;;;;;;;5.70;1.83;;;9.20;64.80;;;;;;4933950;29;20264;-78
2021/12/07 13:47:24;;;;;;;5.57;1.87;;;9.10;65.40;;;;;;4930966;29;20261;-76
2021/12/07 13:49:59;;;;;;;3.80;1.50;;;9.00;65.50;;;;;;4912294;29;20259;-77
2021/12/07 13:52:29;;;;;;;6.50;1.80;;;8.90;66.20;;;;;;4930410;29;20228;-78
2021/12/07 13:54:58;;;;;;;5.77;1.80;;;8.70;66.50;;;;;;4920760;29;20204;-78
2021/12/07 13:57:32;;;;;;;9.97;3.30;;;8.60;66.70;;;;;;4929184;29;20206;-78
2021/12/07 14:00:09;;;;;;;7.67;2.30;;;8.50;67.30;;;;;;4928412;29;20192;-77
2021/12/07 14:02:55;;;;;;;4.93;1.80;;;8.40;68.00;;;;;;4921116;29;20219;-78
2021/12/07 14:05:28;;;;;;;2.97;1.47;;;8.30;68.60;;;;;;4931132;29;20197;-78
2021/12/07 14:07:55;;;;;;;5.93;1.70;;;8.20;69.30;;;;;;4941132;28;20306;-77
2021/12/07 14:10:24;;;;;;;5.77;1.80;;;8.20;69.90;;;;;;4931078;29;20651;-78
2021/12/07 14:12:53;;;;;;;6.90;2.00;;;8.20;71.00;;;;;;4932150;29;20236;-76
2021/12/07 14:15:27;;;;;;;6.80;1.90;;;8.10;71.70;;;;;;4936641;29;20181;-78
2021/12/07 14:17:56;;;;;;;4.60;1.70;;;8.10;73.20;;;;;;4919359;29;20292;-77
2021/12/07 14:20:28;;;;;;;7.00;2.17;;;8.10;73.20;;;;;;4919961;29;20201;-77
2021/12/07 14:22:54;;;;;;;6.83;2.30;;;8.10;73.80;;;;;;4920544;29;20201;-78
2021/12/07 14:25:19;;;;;;;7.17;1.77;;;8.00;75.20;;;;;;4931243;29;20685;-78
2021/12/07 14:27:47;;;;;;;7.53;1.83;;;8.00;76.10;;;;;;4940038;29;20640;-78
2021/12/07 14:30:15;;;;;;;6.37;2.27;;;8.00;76.80;;;;;;4929933;29;20288;-78
2021/12/07 14:32:42;;;;;;;5.73;2.40;;;7.90;78.00;;;;;;4918618;29;20190;-77
2021/12/07 14:35:08;;;;;;;5.27;2.10;;;7.90;79.50;;;;;;4918247;29;20193;-78
2021/12/07 14:37:34;;;;;;;3.83;2.00;;;7.80;80.60;;;;;;4937154;29;20206;-78
2021/12/07 14:40:00;;;;;;;7.33;2.40;;;7.80;81.60;;;;;;4941206;29;20193;-78
2021/12/07 14:42:28;;;;;;;5.57;2.40;;;7.70;83.50;;;;;;4936057;29;20181;-78
2021/12/07 14:44:58;;;;;;;5.03;2.03;;;7.70;85.30;;;;;;4918262;29;20203;-78
2021/12/07 14:47:27;;;;;;;9.07;2.23;;;7.60;85.40;;;;;;4935085;29;20225;-78
2021/12/07 14:49:56;;;;;;;5.77;1.93;;;7.60;87.00;;;;;;4938028;29;20621;-77
2021/12/07 14:52:29;;;;;;;6.03;2.10;;;7.60;87.90;;;;;;4937046;29;20182;-78
2021/12/07 14:54:56;;;;;;;6.13;2.23;;;7.50;89.50;;;;;;4929233;29;20685;-78
2021/12/07 14:57:22;;;;;;;6.87;1.83;;;7.40;90.10;;;;;;4932543;29;20206;-78